Station: MARREE AP

  Atmospheric Gas Attenuation - ITU Rec 676-11   --------------- db/100km ---------------
Date Time Temp RH % AH g/m3 Dew Point Wind Direction Speed kph Gust kph Barometer mB Rainfall Since 9am 24GHz 47GHz 76GHz 122GHz 134GHz 241GHz
22 13:00 25.1 88 20.37 23 15 22 1011.9 3.6 43.9 42.6 83.6 221.2 245.8 853.7
22 12:50 24.8 91 20.71 23.2 13 15 1012.1 3.6 44.6 43.4 85.6 226.6 252.3 876.2
22 12:40 24.7 90 20.37 22.9 15 17 1012.2 3.4 43.9 42.8 84.1 222.5 247.1 858.4
22 12:30 24.6 89 20.03 22.7 17 20 1012.3 3.4 43.2 42.2 82.5 218.3 242.0 840.7
22 12:20 24.7 91 20.6 23.1 17 19 1012.3 3.4 44.4 43.3 85.2 225.5 250.9 871.3
22 12:10 24.5 91 20.37 22.9 24 26 1012.2 3.4 43.9 42.9 84.3 223.1 247.8 860.7
22 12:00 24.4 94 20.92 23.4 19 22 1012.3 3.4 45.1 44.1 87.1 230.6 257.1 892.9
22 11:50 23.9 93 20.12 22.7 20 22 1012.4 3.2 43.5 42.7 83.7 221.6 245.8 853.7
22 11:40 24.1 96 21 23.4 19 22 1012.5 3.2 45.3 44.4 87.9 232.7 259.5 901.2
22 11:30 23.8 94 20.22 22.8 19 24 1012.6 3.2 43.7 43.0 84.4 223.2 247.8 860.6
22 11:20 23.9 94 20.33 22.9 19 20 1012.7 2.2 43.9 43.2 84.8 224.4 249.3 865.7
22 11:10 23.8 94 20.22 22.8 17 19 1012.7 1.6 43.7 43.0 84.4 223.3 247.8 860.7
22 11:00 23.6 94 19.99 22.6 20 26 1012.7 1.4 43.2 42.6 83.4 220.8 244.8 850.0
22 10:50 23.7 95 20.32 22.9 20 22 1012.7 1.2 43.9 43.2 85.0 224.9 249.8 867.5
22 10:40 23.6 95 20.2 22.8 20 26 1012.8 1.2 43.7 43.1 84.5 223.6 248.2 861.9
22 10:30 23.7 95 20.32 22.9 24 28 1012.7 1 43.9 43.2 85.0 224.9 249.8 867.5
22 10:20 23.6 94 19.99 22.6 24 28 1012.8 0.6 43.2 42.6 83.5 220.8 244.8 850.1
22 10:10 23.9 95 20.55 23 22 26 1012.8 0.6 44.4 43.6 85.9 227.3 252.9 878.2
22 10:00 23.7 94 20.11 22.7 22 30 1012.7 0.6 43.5 42.8 83.9 222.1 246.4 855.6
22 09:50 23.8 96 20.65 23.1 19 20 1012.9 0.6 44.6 43.9 86.5 229.0 254.9 885.1
22 09:40 23.4 95 19.98 22.6 20 24 1013 0.6 43.2 42.7 83.6 221.3 245.3 851.9
22 09:30 23.4 96 20.19 22.7 22 30 1013.1 0.6 43.7 43.2 84.7 224.1 248.7 863.8
22 09:20 23.5 96 20.3 22.8 19 24 1013 0.4 43.9 43.3 85.1 225.3 250.2 868.8
22 09:10 23.6 93 19.78 22.4 20 22 1013 0 42.8 42.2 82.4 218.1 241.4 838.4
22 09:00 23.6 94 19.99 22.6 15 20 1013.1 0 43.2 42.7 83.5 220.9 244.8 850.2
22 08:50 23.5 93 19.67 22.3 11 13 1013.1 33.4 42.6 42.1 82.0 217.0 240.0 833.4
22 08:40 23.5 93 19.67 22.3 13 17 1013.1 33.4 42.6 42.1 82.0 217.0 240.0 833.4
22 08:30 23.5 94 19.88 22.5 11 13 1013 33.4 43.0 42.5 83.0 219.7 243.4 845.1
22 08:20 23.5 94 19.88 22.5 9 11 1013 33.4 43.0 42.5 83.0 219.7 243.4 845.1
22 08:10 23.4 94 19.76 22.4 9 9 1012.9 33.4 42.8 42.3 82.5 218.4 241.7 839.5
22 08:00 23.3 94 19.65 22.3 9 13 1012.9 33.2 42.5 42.1 82.1 217.3 240.3 834.4
22 07:50 23.3 94 19.65 22.3 11 15 1012.7 33.2 42.5 42.1 82.1 217.2 240.3 834.3
22 07:40 23.2 94 19.54 22.2 15 19 1012.6 33.2 42.3 41.9 81.7 216.1 238.8 829.2
22 07:30 23.3 94 19.65 22.3 19 26 1012.4 33 42.5 42.1 82.1 217.2 240.2 834.2
22 07:20 23.2 95 19.75 22.4 19 22 1012.3 33 42.8 42.4 82.7 218.8 242.1 840.8
22 07:10 23.2 95 19.75 22.4 20 22 1012.3 33 42.8 42.4 82.7 218.8 242.1 840.8
22 07:00 23.2 96 19.96 22.5 20 28 1012.3 33 43.2 42.8 83.7 221.5 245.5 852.7
22 06:50 23.3 97 20.28 22.8 20 24 1012.1 33 43.9 43.3 85.2 225.5 250.4 869.5
22 06:40 23.3 96 20.07 22.6 22 24 1012.2 33 43.4 42.9 84.2 222.7 247.0 857.7
22 06:30 23.5 97 20.51 23 17 22 1012.2 33 44.4 43.7 86.1 227.9 253.5 880.3
22 06:20 23.6 96 20.42 22.9 17 20 1012 32.4 44.2 43.5 85.5 226.4 251.6 873.9
22 06:10 23.9 95 20.55 23 17 19 1012 29.6 44.4 43.6 85.9 227.2 252.7 877.7
22 06:00 23.9 95 20.55 23 11 15 1011.9 28 44.4 43.6 85.8 227.2 252.7 877.7
22 05:50 24 95 20.67 23.1 15 17 1011.6 28 44.6 43.7 86.3 228.4 254.3 883.1
22 05:40 24 95 20.67 23.1 20 24 1011.5 28 44.6 43.7 86.3 228.4 254.3 883.1
22 05:30 23.9 96 20.77 23.2 19 22 1011.4 27.8 44.9 44.0 86.9 230.0 256.2 889.9
22 05:20 24 96 20.89 23.3 19 20 1011.3 27.8 45.1 44.2 87.4 231.3 257.8 895.5
22 05:10 23.9 96 20.77 23.2 19 20 1011.3 27.8 44.9 44.0 86.9 230.0 256.2 889.8
22 04:50 24 96 20.89 23.3 17 19 1011.4 27.4 45.1 44.2 87.4 231.3 257.8 895.5
22 04:40 23.9 95 20.55 23 17 17 1011.4 27.4 44.4 43.5 85.8 227.1 252.6 877.4
22 04:30 23.9 96 20.77 23.2 17 19 1011.5 27.2 44.9 44.0 86.9 230.1 256.2 889.9
22 04:20 23.8 96 20.65 23.1 17 19 1011.5 27.2 44.6 43.8 86.4 228.8 254.6 884.3
22 04:10 23.9 95 20.55 23 17 20 1011.5 27 44.4 43.5 85.8 227.1 252.6 877.4
22 04:00 24 95 20.67 23.1 17 22 1011.7 26.6 44.6 43.7 86.3 228.4 254.3 883.2
22 03:50 23.9 94 20.33 22.9 17 20 1011.8 26.4 43.9 43.1 84.7 224.3 249.1 865.2
22 03:40 24 94 20.45 23 17 19 1011.8 26.2 44.2 43.3 85.2 225.5 250.7 870.8
22 03:30 24.1 93 20.35 22.9 19 24 1011.8 26.2 43.9 43.1 84.6 223.9 248.8 864.0
22 03:20 24.1 93 20.35 22.9 19 20 1011.8 26.2 43.9 43.1 84.6 223.9 248.8 864.0
22 03:10 24.1 94 20.57 23.1 20 22 1011.8 26.2 44.4 43.5 85.7 226.8 252.3 876.4
22 03:00 24.1 93 20.35 22.9 24 28 1011.7 26.2 44.0 43.0 84.6 223.9 248.7 863.9
22 02:50 23.9 94 20.33 22.9 24 28 1011.8 26.2 43.9 43.1 84.7 224.3 249.1 865.2
22 02:40 24 95 20.67 23.1 22 26 1012 26 44.6 43.8 86.3 228.5 254.3 883.4
22 02:30 24 94 20.45 23 19 26 1012.1 25.6 44.2 43.3 85.2 225.6 250.8 871.0
22 02:20 24 94 20.45 23 20 24 1012.1 25.6 44.2 43.3 85.2 225.6 250.8 871.0
22 02:10 24 95 20.67 23.1 19 20 1012.2 25.6 44.6 43.8 86.3 228.5 254.4 883.5
22 02:00 23.9 95 20.55 23 19 24 1012.4 25.6 44.4 43.6 85.9 227.3 252.8 878.0
22 01:50 23.9 95 20.55 23 19 20 1012.4 25.6 44.4 43.6 85.9 227.3 252.8 878.0
22 01:40 24 95 20.67 23.1 20 22 1012.5 25.6 44.6 43.8 86.4 228.6 254.4 883.6
22 01:30 24.1 95 20.79 23.2 17 20 1012.8 25.4 44.9 44.0 86.9 229.9 256.1 889.4
22 01:20 24.1 94 20.57 23.1 17 19 1013 25.4 44.4 43.5 85.8 227.0 252.5 877.1
22 01:10 24.1 94 20.57 23.1 17 20 1013 25.4 44.4 43.5 85.8 227.0 252.5 877.1
22 01:00 24.1 95 20.79 23.2 17 20 1013 25.4 44.9 44.0 86.9 230.0 256.1 889.6
22 00:50 24 95 20.67 23.1 17 19 1013.1 25.4 44.6 43.8 86.4 228.7 254.5 884.0
22 00:40 24 95 20.67 23.1 17 20 1013.2 25.4 44.6 43.8 86.4 228.7 254.5 884.1
22 00:30 24 94 20.45 23 19 24 1013.2 25.4 44.2 43.4 85.3 225.8 251.0 871.6
22 00:20 24 94 20.45 23 19 20 1013.3 25.2 44.2 43.4 85.3 225.8 251.0 871.7
22 00:10 23.9 94 20.33 22.9 26 30 1013.3 25 43.9 43.2 84.8 224.5 249.4 866.0
22 00:00 24.2 93 20.46 23 19 24 1013.3 23.4 44.2 43.3 85.1 225.3 250.5 869.9
21 23:50 24.3 92 20.36 22.9 20 22 1013.4 23.4 43.9 43.0 84.5 223.7 248.5 863.2
21 23:40 24.2 92 20.24 22.8 19 24 1013.3 23.4 43.7 42.9 84.1 222.4 246.9 857.5
21 23:30 24.3 91 20.14 22.7 22 26 1013.2 23.4 43.5 42.6 83.4 220.8 244.9 850.7
21 23:20 24.4 91 20.25 22.8 22 24 1013.1 23.4 43.7 42.8 83.9 221.9 246.4 855.7
21 23:10 24.5 90 20.14 22.7 22 24 1013.1 23.4 43.4 42.5 83.2 220.2 244.3 848.4
21 23:00 24.4 90 20.03 22.7 20 24 1013.1 23.4 43.2 42.3 82.8 219.1 242.8 843.4
21 22:50 24.4 90 20.03 22.7 20 22 1012.9 23.4 43.2 42.3 82.8 219.0 242.8 843.3
21 22:40 24.4 90 20.03 22.7 22 24 1012.6 23.4 43.2 42.3 82.7 219.0 242.8 843.1
21 22:30 24.3 89 19.69 22.4 22 30 1012.4 23.4 42.5 41.7 81.2 214.8 237.6 825.3
21 22:20 24.1 92 20.13 22.7 20 22 1012.2 23.4 43.5 42.6 83.5 221.1 245.3 851.9
21 22:10 24 93 20.23 22.8 24 28 1011.9 23.4 43.7 42.9 84.1 222.7 247.2 858.5
21 22:00 24 94 20.45 23 26 33 1011.8 23.4 44.2 43.3 85.2 225.5 250.7 870.8
21 21:50 24 94 20.45 23 26 28 1011.7 23.4 44.2 43.3 85.2 225.5 250.7 870.7
21 21:40 24.1 94 20.57 23.1 24 26 1011.7 23.4 44.4 43.5 85.7 226.8 252.3 876.3
21 21:30 24 94 20.45 23 24 30 1011.8 23.4 44.2 43.3 85.2 225.5 250.7 870.8
21 21:20 23.9 94 20.33 22.9 24 26 1012 23.2 43.9 43.1 84.8 224.3 249.1 865.3
21 21:10 23.9 96 20.77 23.2 22 26 1012.2 23.2 44.9 44.0 87.0 230.2 256.4 890.3
21 21:00 23.9 97 20.98 23.4 20 24 1012.2 22.8 45.3 44.4 88.0 233.0 259.8 902.3
21 20:50 23.8 97 20.86 23.3 19 20 1012.3 22.4 45.1 44.3 87.5 231.7 258.2 896.7
21 20:40 23.8 96 20.65 23.1 20 24 1012.4 22.2 44.6 43.8 86.5 228.9 254.8 884.8
21 20:30 23.7 96 20.53 23 20 26 1012.2 21.6 44.4 43.6 86.0 227.6 253.1 879.1
21 20:20 23.8 96 20.65 23.1 20 20 1012.5 20.6 44.6 43.8 86.5 228.9 254.8 884.9

Last Refresh: 22-Jan-2022 13:12:46

Bureau of Meteorology